Latest Weather Observations for Ouse

IDT60801

Issued at 6:02 am EST Friday 6 May 2016 (issued every 30 minutes, with the page automatically refreshed every 10 minutes)

About weather observations | Map of weather stations | Latest weather observations for TAS | Other Formats
Station Details ID: 095048 Name: OUSE FIRE STATION Lat: -42.48 Lon: 146.71 Height: 90.0 m
Data from the previous 72 hours. | See also: Recent months at Ouse
Date/Time
EST
Temp
°C
App
Temp
°C
Dew
Point
Rel
Hum
%
Delta-T
°C
Wind Press
QNH
hPa
Press
MSL
hPa
Rain
since 9 am
mm
Dir
 
Spd
km/h
Gust
km/h
Spd
kts
Gust
kts
06/06:00am 12.9 8.9 8.2 73 2.3 W 19 33 10 18 1007.7 1007.8 3.6
06/05:30am 12.7 10.3 9.9 83 1.4 WNW 13 22 7 12 1006.9 1007.0 3.6
06/05:00am 11.4 10.3 10.6 95 0.4 N 7 9 4 5 1006.1 1006.2 3.6
06/04:30am 11.4 10.3 10.8 96 0.3 NW 7 11 4 6 1005.1 1005.2 3.6
06/04:00am 12.0 10.7 11.4 96 0.3 N 9 11 5 6 1005.1 1005.2 3.6
06/03:30am 12.0 10.7 11.4 96 0.3 NW 9 15 5 8 1004.3 1004.5 3.4
06/03:00am 12.1 12.5 11.3 95 0.4 CALM 0 6 0 3 1004.4 1004.6 3.4
06/02:30am 12.2 11.3 10.6 90 0.8 NNW 6 11 3 6 1004.0 1004.2 3.4
06/02:00am 12.9 11.6 11.1 89 1.0 N 9 13 5 7 1004.1 1004.3 3.4
06/01:30am 13.4 11.0 11.3 87 1.1 N 15 24 8 13 1003.9 1004.1 3.0
06/01:00am 14.5 12.4 11.3 81 1.7 NW 13 20 7 11 1003.9 1004.1 1.2
06/12:30am 15.5 14.0 10.5 72 2.6 NNW 9 15 5 8 1003.7 1003.9 0.0
06/12:00am 16.4 11.7 10.5 68 3.2 NW 26 41 14 22 1003.0 1003.2 0.0
 
Date/Time
EST
Temp
°C
App
Temp
°C
Dew
Point
Rel
Hum
%
Delta-T
°C
Wind Press
QNH
hPa
Press
MSL
hPa
Rain
since 9 am
mm
Dir
 
Spd
km/h
Gust
km/h
Spd
kts
Gust
kts
05/11:30pm 17.4 12.1 9.8 61 4.0 NW 28 46 15 25 1003.1 1003.3 0.0
05/11:10pm 17.6 12.3 9.8 60 4.1 NW 28 48 15 26 1003.0 1003.2 0.0
05/11:00pm 17.4 13.5 9.6 60 4.1 NW 20 35 11 19 1002.9 1003.1 0.0
05/10:30pm 16.9 13.4 8.8 59 4.2 NNW 17 26 9 14 1003.0 1003.2 0.0
05/10:00pm 16.9 13.7 8.6 58 4.3 NNW 15 26 8 14 1003.1 1003.3 0.0
05/09:30pm 16.9 13.7 8.6 58 4.3 NNW 15 41 8 22 1003.4 1003.6 0.0
05/09:00pm 16.9 14.8 8.3 57 4.4 N 9 17 5 9 1003.5 1003.7 0.0
05/08:30pm 17.3 13.7 8.4 56 4.6 NW 17 30 9 16 1003.7 1003.9 0.0
05/08:00pm 17.5 13.0 8.6 56 4.6 NW 22 32 12 17 1003.8 1004.0 0.0
05/07:30pm 17.5 14.8 8.9 57 4.5 NW 13 22 7 12 1003.9 1004.1 0.0
05/07:00pm 16.4 15.0 9.6 64 3.6 NNW 7 13 4 7 1003.9 1004.1 0.0
05/06:30pm 17.4 14.8 9.3 59 4.2 NNW 13 20 7 11 1003.7 1003.9 0.0
05/06:00pm 16.8 14.5 10.4 66 3.4 WNW 13 19 7 10 1003.5 1003.7 0.0
05/05:30pm 17.6 15.6 10.2 62 3.9 WNW 11 15 6 8 1003.7 1003.9 0.0
05/05:00pm 18.0 14.8 10.1 60 4.2 N 17 24 9 13 1003.4 1003.6 0.0
05/04:30pm 18.2 15.1 10.3 60 4.2 N 17 26 9 14 1003.4 1003.6 0.0
05/04:00pm 19.2 14.8 10.5 57 4.7 NNW 24 44 13 24 1003.7 1003.9 0.0
05/03:30pm 19.1 15.6 10.1 56 4.8 NNW 19 35 10 19 1003.6 1003.8 0.0
05/03:00pm 19.5 15.0 10.0 54 5.1 NNW 24 37 13 20 1003.4 1003.6 0.0
05/02:30pm 20.0 16.4 10.7 55 5.1 NNW 20 30 11 16 1003.6 1003.8 0.0
05/02:00pm 20.2 15.9 10.6 54 5.3 NNW 24 41 13 22 1003.7 1003.9 0.0
05/01:51pm 19.8 14.7 10.5 55 5.1 NNW 28 50 15 27 1003.9 1004.1 0.0
05/01:30pm 19.6 16.3 10.9 57 4.8 NNW 19 30 10 16 1003.9 1004.1 0.0
05/01:00pm 19.8 15.8 10.5 55 5.1 NNW 22 35 12 19 1004.1 1004.3 0.0
05/12:40pm 19.8 14.6 10.2 54 5.2 NW 28 50 15 27 1004.5 1004.7 0.0
05/12:30pm 19.2 16.3 11.0 59 4.5 NW 17 28 9 15 1004.6 1004.8 0.0
05/12:00pm 19.0 15.6 11.3 61 4.2 WNW 20 32 11 17 1005.5 1005.6 0.0
05/11:30am 18.9 15.1 11.0 60 4.3 WNW 22 32 12 17 1005.9 1006.0 0.0
05/11:00am 18.9 15.5 10.7 59 4.5 NW 19 30 10 16 1006.1 1006.2 0.0
05/10:30am 19.1 15.4 10.1 56 4.8 NNW 20 32 11 17 1006.3 1006.4 0.0
05/10:00am 17.8 14.7 10.4 62 4.0 NW 17 28 9 15 1006.7 1006.8 0.0
05/09:30am 17.3 14.9 10.0 62 3.9 NW 13 19 7 10 1006.9 1007.0 0.0
05/09:00am 17.0 14.6 9.9 63 3.8 NW 13 20 7 11 1006.8 1006.9 0.0
05/08:30am 16.7 14.2 9.6 63 3.7 N 13 20 7 11 1006.8 1006.9 0.0
05/08:00am 16.3 12.6 9.5 64 3.6 NNW 19 32 10 17 1006.8 1006.9 0.0
05/07:30am 15.7 13.4 9.1 65 3.4 NNW 11 20 6 11 1006.3 1006.4 0.0
05/07:00am 15.3 12.9 8.8 65 3.3 NNW 11 15 6 8 1005.9 1006.0 0.0
05/06:30am 15.3 12.9 8.8 65 3.3 N 11 19 6 10 1005.7 1005.8 0.0
05/06:00am 14.9 12.8 8.4 65 3.3 N 9 15 5 8 1005.7 1005.8 0.0
05/05:30am 14.9 12.1 8.4 65 3.3 N 13 22 7 12 1005.5 1005.6 0.0
05/05:00am 14.7 11.9 8.4 66 3.2 N 13 19 7 10 1005.3 1005.4 0.0
05/04:30am 14.3 11.8 8.0 66 3.1 N 11 15 6 8 1005.4 1005.5 0.0
05/04:00am 14.5 11.6 8.0 65 3.3 N 13 20 7 11 1005.2 1005.3 0.0
05/03:30am 14.7 11.7 7.7 63 3.5 N 13 19 7 10 1005.2 1005.3 0.0
05/03:00am 14.3 11.2 7.4 63 3.4 N 13 20 7 11 1005.4 1005.5 0.0
05/02:30am 14.4 11.0 7.5 63 3.4 N 15 24 8 13 1005.5 1005.6 0.0
05/02:00am 14.1 10.3 7.4 64 3.3 N 17 30 9 16 1005.4 1005.5 0.0
05/01:30am 14.3 10.8 7.4 63 3.4 N 15 26 8 14 1005.6 1005.7 0.0
05/01:00am 14.3 11.5 7.1 62 3.5 NNW 11 19 6 10 1005.7 1005.8 0.0
05/12:30am 14.1 11.0 7.2 63 3.4 N 13 19 7 10 1005.7 1005.8 0.0
05/12:00am 14.2 10.3 7.0 62 3.5 N 17 39 9 21 1005.6 1005.7 0.0
 
Date/Time
EST
Temp
°C
App
Temp
°C
Dew
Point
Rel
Hum
%
Delta-T
°C
Wind Press
QNH
hPa
Press
MSL
hPa
Rain
since 9 am
mm
Dir
 
Spd
km/h
Gust
km/h
Spd
kts
Gust
kts
04/11:30pm 13.4 10.2 6.7 64 3.2 N 13 20 7 11 1005.8 1005.9 0.0
04/11:00pm 13.1 9.5 6.7 65 3.1 NNE 15 20 8 11 1005.9 1006.0 0.0
04/10:30pm 13.1 9.1 6.5 64 3.2 N 17 22 9 12 1006.3 1006.4 0.0
04/10:00pm 12.3 9.0 6.6 68 2.7 N 13 20 7 11 1006.5 1006.6 0.0
04/09:30pm 12.5 9.4 5.7 63 3.2 N 11 22 6 12 1006.6 1006.7 0.0
04/09:00pm 12.7 8.4 5.4 61 3.4 N 17 30 9 16 1006.4 1006.5 0.0
04/08:30pm 12.7 8.5 5.6 62 3.3 N 17 30 9 16 1006.5 1006.6 0.0
04/08:00pm 12.2 8.7 5.4 63 3.2 N 13 20 7 11 1006.6 1006.7 0.0
04/07:30pm 10.7 7.2 5.5 70 2.4 N 13 19 7 10 1006.5 1006.6 0.0
04/07:00pm 10.6 7.7 4.9 68 2.6 N 9 13 5 7 1006.6 1006.7 0.0
04/06:30pm 11.3 7.7 5.0 65 2.9 N 13 22 7 12 1006.3 1006.4 0.0
04/06:00pm 12.0 8.0 5.0 62 3.2 N 15 22 8 12 1006.3 1006.4 0.0
04/05:30pm 11.2 7.9 4.7 64 3.0 N 11 19 6 10 1006.1 1006.2 0.0
04/05:00pm 12.1 8.0 4.6 60 3.4 N 15 20 8 11 1006.3 1006.4 0.0
04/04:30pm 12.9 8.0 4.3 56 3.9 NNW 19 28 10 15 1006.2 1006.3 0.0
04/04:00pm 13.3 8.7 3.9 53 4.3 NW 17 26 9 14 1005.8 1005.9 0.0
04/03:30pm 13.7 9.6 4.6 54 4.2 NNW 15 22 8 12 1006.1 1006.2 0.0
04/03:00pm 13.5 8.5 3.6 51 4.5 NW 19 35 10 19 1006.2 1006.3 0.0
04/02:30pm 13.2 7.8 4.6 56 4.0 NW 22 41 12 22 1006.0 1006.1 0.0
04/02:00pm 12.8 8.2 3.7 54 4.1 NW 17 30 9 16 1006.1 1006.2 0.0
04/01:30pm 12.7 9.0 4.7 58 3.7 NNW 13 26 7 14 1005.9 1006.0 0.0
04/01:00pm 12.0 7.9 4.2 59 3.5 NW 15 20 8 11 1006.2 1006.3 0.0
04/12:30pm 11.9 6.7 3.7 57 3.7 NW 20 30 11 16 1006.5 1006.6 0.0
04/12:00pm 12.2 7.2 4.7 60 3.5 WNW 20 32 11 17 1006.4 1006.5 0.0
04/11:30am 11.9 7.3 3.9 58 3.6 WNW 17 26 9 14 1006.2 1006.3 0.0
04/11:00am 12.2 7.7 4.2 58 3.6 NNW 17 28 9 15 1006.2 1006.3 0.0
04/10:30am 11.0 6.8 3.8 61 3.2 NW 15 24 8 13 1006.3 1006.4 0.0
04/10:00am 9.8 5.5 3.5 65 2.8 NW 15 24 8 13 1006.4 1006.5 0.0
04/09:30am 10.3 6.1 3.6 63 2.9 N 15 26 8 14 1006.0 1006.1 0.0
04/09:00am 8.9 5.0 3.5 69 2.4 N 13 19 7 10 1005.8 1005.9 14.4
04/08:30am 8.0 4.1 3.5 73 1.9 NNW 13 24 7 13 1005.5 1005.6 14.4
04/08:00am 6.9 2.6 3.5 79 1.5 N 15 24 8 13 1005.3 1005.4 14.4
04/07:30am 5.6 1.6 2.8 82 1.2 NNW 13 22 7 12 1004.8 1004.9 14.4
04/07:00am 5.1 1.0 2.5 83 1.1 NNW 13 19 7 10 1004.3 1004.5 14.4
04/06:30am 6.2 0.5 2.8 79 1.4 NW 22 41 12 22 1004.0 1004.2 14.4
04/06:00am 4.9 0.9 2.8 86 0.9 NNW 13 19 7 10 1003.5 1003.7 14.4
04/05:30am 5.0 1.0 2.9 86 0.9 N 13 20 7 11 1003.0 1003.2 14.4
04/05:00am 5.7 2.3 3.9 88 0.8 NNW 11 20 6 11 1002.3 1002.5 14.4
04/04:30am 5.9 1.3 3.7 86 0.9 NW 17 30 9 16 1002.1 1002.3 13.2
04/04:00am 4.3 1.7 3.4 94 0.4 NNW 6 9 3 5 1001.0 1001.1 12.0
04/03:30am 5.3 2.6 3.8 90 0.6 NW 7 11 4 6 1000.5 1000.6 12.0
04/03:00am 4.3 0.4 3.6 95 0.3 N 13 17 7 9 1000.2 1000.3 11.6
04/02:30am 4.1 0.5 2.8 91 0.5 N 11 15 6 8 999.5 999.6 11.6
04/02:00am 5.1 0.5 3.8 91 0.6 N 17 20 9 11 999.5 999.6 11.6
04/01:30am 5.2 1.7 3.4 88 0.8 N 11 17 6 9 999.1 999.2 11.4
04/01:00am 5.5 1.2 3.5 87 0.8 NNW 15 24 8 13 999.1 999.2 11.0
04/12:30am 5.2 0.8 2.9 85 0.9 NNW 15 22 8 12 998.6 998.7 11.0
04/12:00am 6.4 1.4 3.6 82 1.2 NNW 19 28 10 15 998.8 998.9 10.0
 
Date/Time
EST
Temp
°C
App
Temp
°C
Dew
Point
Rel
Hum
%
Delta-T
°C
Wind Press
QNH
hPa
Press
MSL
hPa
Rain
since 9 am
mm
Dir
 
Spd
km/h
Gust
km/h
Spd
kts
Gust
kts
03/11:30pm 6.6 1.6 3.6 81 1.3 NNW 19 28 10 15 997.4 997.5 9.4
03/11:00pm 7.0 2.0 3.4 78 1.5 WNW 19 30 10 16 996.9 997.0 9.2
03/10:30pm 5.6 2.4 3.3 85 1.0 NNW 9 15 5 8 996.6 996.7 8.8
03/10:00pm 6.4 2.4 3.0 79 1.4 N 13 20 7 11 996.2 996.3 8.8
03/09:30pm 7.6 0.8 3.1 73 1.9 WNW 28 52 15 28 996.1 996.2 8.8
03/09:25pm 7.7 1.6 3.0 72 2.0 NW 24 52 13 28 996.1 996.2 8.8
03/09:23pm 7.8 2.1 2.9 71 2.1 NW 22 52 12 28 996.0 996.1 8.8
03/09:00pm 5.2 1.6 3.2 87 0.8 NNW 11 19 6 10 995.2 995.3 8.8
03/08:30pm 5.4 2.7 3.6 88 0.8 N 7 11 4 6 994.9 995.0 8.8
03/08:00pm 6.8 2.5 3.4 79 1.5 NNW 15 24 8 13 994.7 994.8 8.8
03/07:30pm 7.0 1.1 4.0 81 1.3 NNW 24 39 13 21 994.2 994.3 8.8
03/07:00pm 6.6 3.0 4.8 88 0.8 N 13 19 7 10 994.1 994.2 8.6
03/06:30pm 6.8 2.6 3.9 82 1.2 WNW 15 22 8 12 993.4 993.5 7.6
03/06:00pm 6.9 1.8 4.0 82 1.3 NW 20 33 11 18 991.8 991.9 7.6
03/05:30pm 7.3 2.3 4.4 82 1.3 NW 20 35 11 19 991.5 991.6 7.4
03/05:00pm 7.3 2.0 4.8 84 1.1 NW 22 32 12 17 991.4 991.5 6.6
03/04:30pm 8.8 5.2 4.8 76 1.8 NNW 13 20 7 11 990.2 990.3 4.4
03/04:00pm 9.1 4.3 4.5 73 2.1 NW 19 28 10 15 989.6 989.7 4.4
03/03:30pm 9.8 5.4 5.0 72 2.2 NW 17 30 9 16 990.1 990.2 4.2
03/03:00pm 9.7 4.2 5.7 76 1.9 WNW 24 41 13 22 989.7 989.8 4.2
03/02:46pm 10.9 4.5 5.4 69 2.5 WNW 28 54 15 29 989.0 989.1 4.0
03/02:43pm 11.0 5.9 6.0 71 2.3 WNW 22 46 12 25 988.9 989.0 4.0
03/02:30pm 11.6 7.2 7.3 75 2.1 NW 20 30 11 16 988.2 988.3 3.8
03/02:00pm 13.2 8.7 7.0 66 3.0 WNW 20 32 11 17 987.8 987.9 3.6
03/01:30pm 13.5 9.1 7.3 66 3.0 NW 20 33 11 18 987.2 987.3 3.6
03/01:00pm 12.8 9.9 8.1 73 2.4 NW 13 20 7 11 987.0 987.1 3.6
03/12:30pm 12.3 10.5 8.0 75 2.1 WNW 7 13 4 7 987.3 987.4 3.6
03/12:00pm 11.4 8.0 7.5 77 1.9 WNW 15 26 8 14 988.3 988.4 3.6
03/11:30am 11.6 9.9 9.7 88 1.0 NNW 9 15 5 8 989.7 989.8 3.2
03/11:00am 11.1 9.6 10.5 96 0.3 SW 9 17 5 9 988.6 988.7 3.2
03/10:30am 10.5 9.3 9.6 94 0.5 N 6 7 3 4 988.6 988.7 2.6
03/10:00am 10.7 9.3 9.5 92 0.6 N 7 9 4 5 988.7 988.8 1.2
03/09:30am 10.8 8.9 9.1 89 0.8 N 9 11 5 6 988.7 988.8 0.4
03/09:00am 11.2 9.3 8.9 86 1.2 NNW 9 15 5 8 989.1 989.2 6.2
03/08:30am 11.8 8.4 9.2 84 1.3 NW 17 26 9 14 989.5 989.6 6.0
03/08:00am 12.4 8.4 9.1 80 1.7 NW 20 28 11 15 988.7 988.8 5.8
03/07:30am 12.0 9.5 9.6 85 1.2 NW 13 20 7 11 987.8 987.9 5.8
03/07:00am 12.3 9.0 9.7 84 1.3 NW 17 28 9 15 988.1 988.2 5.6
03/06:30am 12.2 9.9 10.3 88 1.0 NNW 13 20 7 11 987.8 987.9 5.0

Other Formats:

Comma delimited format used in spreadsheet applications
http://www.bom.gov.au/fwo/IDT60801/IDT60801.94957.axf

JavaScript Object Notation format (JSON) in row-major order
http://www.bom.gov.au/fwo/IDT60801/IDT60801.94957.json